METAR Data
IDs: Format: Raw Decoded Include TAF

Data at: 0506 UTC 26 Sep 2018

KSAN 260451Z 33005KT 10SM OVC015 20/16 A2995 RMK AO2 SLP142 T02000156
KSAN 260351Z 32006KT 10SM OVC016 20/16 A2995 RMK AO2 SLP140 T02000156
KSAN 260259Z 33005KT 10SM BKN017 21/15 A2993 RMK AO2 T02060150
KSAN 260251Z 30005KT 10SM SCT017 20/15 A2993 RMK AO2 SLP134 T02000150 53005
KSAN 260151Z 30008KT 10SM SCT021 21/15 A2991 RMK AO2 SLP129 T02060150
KSAN 260051Z 30007KT 10SM FEW021 21/15 A2991 RMK AO2 SLP129 T02110150
KSAN 252351Z 29008KT 10SM FEW021 22/15 A2991 RMK AO2 SLP128 T02170150 10239 20211 56009
KSAN 252251Z 31008KT 10SM FEW024 22/15 A2992 RMK AO2 SLP130 T02220150
KSAN 252151Z 29010KT 10SM FEW024 23/15 A2992 RMK AO2 SLP133 T02280150
KSAN 252051Z 30013KT 10SM FEW024 23/15 A2994 RMK AO2 SLP137 T02280150 57012
KSAN 251951Z 30010KT 10SM SCT023 SCT026 24/16 A2995 RMK AO2 SLP142 SCT026 V BKN T02390156
KSAN 251851Z 30005KT 10SM BKN023 BKN026 22/16 A2996 RMK AO2 SLP144 T02170156
KSAN 251751Z 28003KT 10SM BKN023 OVC026 21/15 A2997 RMK AO2 SLP149 T02110150 10217 20189 51008
KSAN 251651Z 00000KT 10SM OVC021 21/15 A2997 RMK AO2 SLP148 T02060150
KSAN 251551Z 03003KT 10SM OVC018 20/15 A2996 RMK AO2 SLP146 T02000150
KSAN 251451Z 36003KT 10SM OVC016 19/15 A2995 RMK AO2 SLP141 T01940150 53016
KSAN 251351Z 08003KT 10SM OVC015 19/16 A2992 RMK AO2 SLP132 T01940156
KSAN 251251Z 08003KT 10SM OVC013 19/16 A2991 RMK AO2 SLP128 T01890156
KSAN 251151Z 00000KT 10SM OVC012 19/16 A2990 RMK AO2 SLP125 T01890156 10194 20189 55001
KSAN 251051Z 34005KT 10SM OVC012 19/16 A2989 RMK AO2 SLP123 T01890156
KSAN 250951Z VRB04KT 10SM OVC013 19/16 A2990 RMK AO2 SLP125 T01890156
KSAN 250851Z 33003KT 10SM OVC014 19/15 A2990 RMK AO2 SLP126 T01940150 58001
KSAN 250804Z 31003KT 10SM OVC014 19/15 A2990 RMK AO2 T01940150
KSAN 250751Z 35004KT 10SM OVC015 19/15 A2990 RMK AO2 SLP126 T01940150 402060183
KSAN 250651Z 00000KT 10SM OVC015 19/15 A2991 RMK AO2 SLP128 T01940150
KSAN 250551Z 00000KT 10SM OVC015 19/15 A2991 RMK AO2 SLP127 T01940150 10200 20189 51005
KSAN 250451Z 30004KT 10SM OVC016 19/15 A2991 RMK AO2 SLP127 T01940150
KSAN 250351Z 34003KT 10SM OVC015 19/15 A2990 RMK AO2 SLP126 T01890150
KSAN 250251Z 29003KT 10SM OVC016 19/14 A2989 RMK AO2 SLP122 T01940144 53005
KSAN 250151Z VRB03KT 10SM OVC018 19/14 A2988 RMK AO2 SLP118 T01940144
KSAN 250051Z 22006KT 10SM BKN019 19/14 A2988 RMK AO2 SLP117 T01940144
KSAN 242351Z 28004KT 10SM BKN018 20/14 A2988 RMK AO2 SLP117 T02000144 10206 20189 56008
KSAN 242251Z 27006KT 10SM OVC019 20/14 A2988 RMK AO2 SLP118 T02000144
KSAN 242151Z 26006KT 10SM OVC018 20/14 A2989 RMK AO2 SLP121 T02000144
KSAN 242051Z 23007KT 10SM SCT016 OVC019 21/15 A2990 RMK AO2 SLP125 T02060150 58013
KSAN 241951Z 21005KT 10SM SCT014 OVC016 20/15 A2992 RMK AO2 SLP133 T02000150
KSAN 241907Z 20005KT 10SM SCT014 OVC016 19/15 A2994 RMK AO2 T01940150
KSAN 241851Z 22006KT 10SM OVC014 19/15 A2994 RMK AO2 SLP137 T01890150
KSAN 241751Z 24006KT 10SM OVC013 19/16 A2994 RMK AO2 SLP138 T01940156 10200 20183 51011